»·PEaware :: N301PW KCOE-KMHR

N301PW :: KCOE-KMHR

FLIGHT INFORMATION

Flight Status: Arrived
Operator: Privately registered:
United States
More flights under this callsign
Pilot: Stacy K. (11621)
Aircraft: DEHAVILLAND DASH 8 200
(DH8B)
More flights by this aircraft type
Origin: KCOE Coeur d'Alene
United States
Destination: KMHR Mather
United States
More flights between these airports :: More routes between these airports
Route: GEG PDT IMB LMT RBL MCC
File this flight plan on PilotEdge
Remarks:
Altitude:
(Current/Filed)
16,500ft
Speed:
(Current/Filed)
230kts
Departed: 17-Apr-18 02:58 PM
Arrived: 17-Apr-18 05:28 PM
Distance/Time
Traveled:
586nm/2:30
Distance/Time
To Go:
Arrived

Flight Plot

Page will automatically refresh every two minutes.

Flight plan parsing failed; only flown route is shown


Map Options




Map Legend


Flown Route
Filed Route
Departure Airport
Arrival Airport
Navaid (VOR, NDB)
Fix

Horizontal Profiles

Position Reports

Time Latitude Longitude Heading Altitude Ground
Speed
17-Apr-18 14:52 47.774583 -116.811672 209 2306ft 0kts
17-Apr-18 14:53 47.774583 -116.811672 209 2306ft 0kts
17-Apr-18 14:54 47.774520 -116.811811 267 2306ft 9kts
17-Apr-18 14:55 47.776767 -116.810445 32 2306ft 6kts
17-Apr-18 14:56 47.778363 -116.809004 358 2306ft 0kts
17-Apr-18 14:57 47.775213 -116.823650 244 2438ft 105kts
17-Apr-18 14:58 47.762082 -116.867554 244 4191ft 124kts
17-Apr-18 14:59 47.748452 -116.919865 248 6051ft 145kts
17-Apr-18 15:00 47.733678 -116.977750 248 7873ft 152kts
17-Apr-18 15:01 47.718583 -117.036553 249 9674ft 152kts
17-Apr-18 15:02 47.703465 -117.095158 251 11462ft 151kts
17-Apr-18 15:03 47.688502 -117.153041 252 13248ft 148kts
17-Apr-18 15:04 47.673866 -117.209487 252 15028ft 144kts
17-Apr-18 15:05 47.659477 -117.264933 253 16503ft 159kts
17-Apr-18 15:06 47.639671 -117.342009 252 16519ft 230kts
17-Apr-18 15:07 47.615273 -117.435392 251 16507ft 251kts
17-Apr-18 15:08 47.589681 -117.532833 251 16502ft 255kts
17-Apr-18 15:09 47.555169 -117.623277 222 16524ft 263kts
17-Apr-18 15:10 47.491384 -117.679030 211 16503ft 268kts
17-Apr-18 15:11 47.424590 -117.728677 211 16505ft 269kts
17-Apr-18 15:12 47.357616 -117.777452 210 16512ft 267kts
17-Apr-18 15:13 47.290858 -117.825777 210 16524ft 266kts
17-Apr-18 15:14 47.224285 -117.873813 210 16534ft 267kts
17-Apr-18 15:15 47.157291 -117.921988 210 16544ft 267kts
17-Apr-18 15:16 47.090479 -117.969891 210 16553ft 267kts
17-Apr-18 15:17 47.023462 -118.017823 210 16560ft 267kts
17-Apr-18 15:18 46.956498 -118.065565 210 16566ft 267kts
17-Apr-18 15:19 46.889709 -118.113053 210 16572ft 267kts
17-Apr-18 15:20 46.822692 -118.160567 210 16577ft 268kts
17-Apr-18 15:21 46.755448 -118.208121 209 16583ft 269kts
17-Apr-18 15:22 46.688069 -118.255625 209 16587ft 269kts
17-Apr-18 15:23 46.620508 -118.303125 209 16597ft 269kts
17-Apr-18 15:24 46.552967 -118.350483 209 16610ft 270kts
17-Apr-18 15:25 46.485043 -118.397979 209 16613ft 270kts
17-Apr-18 15:26 46.417413 -118.445136 209 16618ft 270kts
17-Apr-18 15:27 46.349302 -118.492503 209 16617ft 271kts
17-Apr-18 15:28 46.281123 -118.539774 209 16620ft 271kts
17-Apr-18 15:29 46.213039 -118.586855 209 16623ft 271kts
17-Apr-18 15:30 46.145259 -118.633599 209 16623ft 270kts
17-Apr-18 15:31 46.077297 -118.680340 209 16622ft 270kts
17-Apr-18 15:32 46.009127 -118.727093 209 16622ft 270kts
17-Apr-18 15:33 45.941125 -118.773603 209 16622ft 271kts
17-Apr-18 15:34 45.872926 -118.820132 209 16625ft 271kts
17-Apr-18 15:35 45.804140 -118.866959 209 16507ft 274kts
17-Apr-18 15:36 45.735483 -118.913529 209 16505ft 272kts
17-Apr-18 15:37 45.667744 -118.962083 211 16512ft 271kts
17-Apr-18 15:38 45.600267 -119.012305 212 16505ft 272kts
17-Apr-18 15:39 45.533435 -119.062181 212 16506ft 270kts
17-Apr-18 15:40 45.466798 -119.111850 212 16511ft 270kts
17-Apr-18 15:41 45.400303 -119.161314 212 16511ft 269kts
17-Apr-18 15:42 45.333766 -119.210665 212 16511ft 269kts
17-Apr-18 15:43 45.291172 -119.242188 212 16510ft 269kts
17-Apr-18 15:44 45.224285 -119.291586 212 16498ft 270kts
17-Apr-18 15:45 45.157608 -119.340684 212 16499ft 270kts
17-Apr-18 15:46 45.090904 -119.389673 212 16504ft 270kts
17-Apr-18 15:47 45.024219 -119.438570 212 16506ft 270kts
17-Apr-18 15:48 44.957369 -119.487410 212 16504ft 270kts
17-Apr-18 15:49 44.890471 -119.536161 212 16502ft 270kts
17-Apr-18 15:50 44.824210 -119.584327 212 16501ft 271kts
17-Apr-18 15:51 44.757304 -119.632834 212 16500ft 271kts
17-Apr-18 15:52 44.690290 -119.681322 212 16499ft 271kts
17-Apr-18 15:53 44.624561 -119.732622 215 16499ft 270kts
17-Apr-18 15:54 44.559874 -119.786642 216 16499ft 269kts
17-Apr-18 15:55 44.495560 -119.840763 216 16499ft 270kts
17-Apr-18 15:56 44.431197 -119.894897 216 16499ft 270kts
17-Apr-18 15:57 44.366777 -119.948965 216 16495ft 270kts
17-Apr-18 15:58 44.302360 -120.002921 216 16494ft 270kts
17-Apr-18 15:59 44.237827 -120.056836 216 16493ft 269kts
17-Apr-18 16:00 44.173545 -120.110418 216 16493ft 269kts
17-Apr-18 16:01 44.109171 -120.163919 216 16494ft 269kts
17-Apr-18 16:02 44.044683 -120.217435 216 16493ft 270kts
17-Apr-18 16:03 43.979826 -120.271073 216 16493ft 270kts
17-Apr-18 16:04 43.915142 -120.324371 216 16495ft 271kts
17-Apr-18 16:05 43.850318 -120.377679 216 16498ft 271kts
17-Apr-18 16:06 43.785479 -120.430864 216 16499ft 271kts
17-Apr-18 16:07 43.720523 -120.484006 216 16500ft 271kts
17-Apr-18 16:08 43.655563 -120.537100 214 16504ft 271kts
17-Apr-18 16:09 43.591068 -120.589617 214 16493ft 266kts
17-Apr-18 16:10 43.527549 -120.641187 214 16493ft 264kts
17-Apr-18 16:11 43.464272 -120.692467 213 16493ft 263kts
17-Apr-18 16:12 43.401128 -120.743464 213 16500ft 263kts
17-Apr-18 16:13 43.338068 -120.794324 213 16500ft 263kts
17-Apr-18 16:14 43.274829 -120.845199 213 16501ft 262kts
17-Apr-18 16:15 43.211782 -120.895792 213 16501ft 262kts
17-Apr-18 16:16 43.148803 -120.946192 213 16502ft 262kts
17-Apr-18 16:17 43.106935 -120.979603 213 16502ft 262kts
17-Apr-18 16:18 43.046415 -121.027873 213 16503ft 262kts
17-Apr-18 16:19 42.983548 -121.077942 213 16504ft 261kts
17-Apr-18 16:20 42.920629 -121.127816 213 16504ft 261kts
17-Apr-18 16:21 42.857457 -121.177843 213 16506ft 262kts
17-Apr-18 16:22 42.794538 -121.227513 213 16514ft 261kts
17-Apr-18 16:23 42.731741 -121.276981 213 16514ft 260kts
17-Apr-18 16:24 42.669055 -121.326260 213 16513ft 260kts
17-Apr-18 16:25 42.606465 -121.375337 212 16509ft 259kts
17-Apr-18 16:26 42.543728 -121.424416 212 16507ft 259kts
17-Apr-18 16:27 42.481261 -121.473161 212 16506ft 259kts
17-Apr-18 16:28 42.418787 -121.521802 212 16505ft 259kts
17-Apr-18 16:29 42.356261 -121.570351 212 16506ft 259kts
17-Apr-18 16:30 42.293685 -121.618867 212 16505ft 259kts
17-Apr-18 16:31 42.231221 -121.667238 212 16504ft 258kts
17-Apr-18 16:32 42.168255 -121.714465 205 16503ft 259kts
17-Apr-18 16:33 42.098188 -121.740106 195 16500ft 262kts
17-Apr-18 16:34 42.026645 -121.759412 194 16501ft 262kts
17-Apr-18 16:35 41.955027 -121.777879 194 16502ft 262kts
17-Apr-18 16:36 41.883389 -121.796123 194 16504ft 262kts
17-Apr-18 16:37 41.811490 -121.814361 194 16506ft 262kts
17-Apr-18 16:38 41.739773 -121.832491 194 16502ft 262kts
17-Apr-18 16:39 41.688075 -121.845520 194 16501ft 262kts
17-Apr-18 16:40 41.628090 -121.860623 194 16500ft 263kts
17-Apr-18 16:41 41.556255 -121.878659 194 16499ft 262kts
17-Apr-18 16:42 41.472575 -121.899638 194 16498ft 262kts
17-Apr-18 16:43 41.400503 -121.917656 194 16495ft 263kts
17-Apr-18 16:44 41.329646 -121.935332 194 16498ft 263kts
17-Apr-18 16:45 41.257507 -121.953291 194 16500ft 264kts
17-Apr-18 16:46 41.185352 -121.971209 194 16501ft 264kts
17-Apr-18 16:47 41.124963 -121.986123 194 16501ft 264kts
17-Apr-18 16:48 41.052458 -122.004046 195 16507ft 264kts
17-Apr-18 16:49 40.980583 -122.021815 195 16510ft 262kts
17-Apr-18 16:50 40.908723 -122.039521 195 16515ft 261kts
17-Apr-18 16:51 40.837143 -122.057131 195 16502ft 262kts
17-Apr-18 16:52 40.765401 -122.074705 195 16507ft 262kts
17-Apr-18 16:53 40.693693 -122.092244 195 16511ft 262kts
17-Apr-18 16:54 40.621993 -122.109739 195 16513ft 262kts
17-Apr-18 16:55 40.550165 -122.127232 195 16514ft 262kts
17-Apr-18 16:56 40.478196 -122.144731 195 16517ft 262kts
17-Apr-18 16:57 40.406306 -122.162154 195 16518ft 263kts
17-Apr-18 16:58 40.334316 -122.179570 195 16520ft 263kts
17-Apr-18 16:59 40.262433 -122.196938 195 16523ft 263kts
17-Apr-18 17:00 40.190461 -122.214297 195 16526ft 263kts
17-Apr-18 17:01 40.117732 -122.230109 184 16523ft 269kts
17-Apr-18 17:02 40.045504 -122.202661 163 16527ft 279kts
17-Apr-18 17:03 39.974125 -122.161965 161 16527ft 280kts
17-Apr-18 17:04 39.903035 -122.120169 161 16529ft 280kts
17-Apr-18 17:05 39.831834 -122.078209 161 16501ft 281kts
17-Apr-18 17:06 39.760601 -122.036265 161 16504ft 280kts
17-Apr-18 17:07 39.689510 -121.994498 161 16505ft 280kts
17-Apr-18 17:08 39.618283 -121.952745 161 16506ft 281kts
17-Apr-18 17:09 39.546930 -121.911021 161 16496ft 281kts
17-Apr-18 17:10 39.475564 -121.869359 161 16503ft 281kts
17-Apr-18 17:11 39.403836 -121.827598 161 16502ft 282kts
17-Apr-18 17:12 39.332153 -121.785955 161 16501ft 282kts
17-Apr-18 17:13 39.260358 -121.744340 161 16500ft 283kts
17-Apr-18 17:14 39.184431 -121.700699 160 15068ft 315kts
17-Apr-18 17:15 39.105223 -121.654927 158 13324ft 303kts
17-Apr-18 17:16 39.029935 -121.611497 157 11647ft 289kts
17-Apr-18 17:17 38.958443 -121.568411 149 10147ft 280kts
17-Apr-18 17:18 38.899223 -121.506091 135 8650ft 271kts
17-Apr-18 17:19 38.847134 -121.437784 134 7207ft 262kts
17-Apr-18 17:20 38.798144 -121.372695 131 6239ft 247kts
17-Apr-18 17:21 38.760005 -121.304144 124 6054ft 229kts
17-Apr-18 17:22 38.723517 -121.235087 124 6045ft 236kts
17-Apr-18 17:23 38.678589 -121.172779 153 5385ft 248kts
17-Apr-18 17:24 38.620277 -121.187538 217 3919ft 235kts
17-Apr-18 17:25 38.580861 -121.250084 234 740ft 204kts
17-Apr-18 17:26 38.558347 -121.289920 233 102ft 53kts
17-Apr-18 17:27 38.555794 -121.297161 313 102ft 7kts
17-Apr-18 17:28 38.559039 -121.298474 0 102ft 11kts
17-Apr-18 17:29 38.560502 -121.299823 272 102ft 0kts
17-Apr-18 17:30 38.560502 -121.299823 272 102ft 0kts
17-Apr-18 17:31 38.560502 -121.299823 272 102ft 0kts
17-Apr-18 17:32 38.560502 -121.299823 272 102ft 0kts
17-Apr-18 17:33 38.560502 -121.299823 272 102ft 0kts
17-Apr-18 17:34 38.560502 -121.299823 272 102ft 0kts
17-Apr-18 17:35 38.560502 -121.299823 272 102ft 0kts
17-Apr-18 17:36 38.560502 -121.299823 272 102ft 0kts
17-Apr-18 17:37 38.560502 -121.299823 272 102ft 0kts
17-Apr-18 17:38 38.560502 -121.299823 272 102ft 0kts
17-Apr-18 17:39 38.560502 -121.299823 272 102ft 0kts

Navigation Log

Ident Type
Flight plan parsing failed, navigation log unavailable